Time;durP1;ratioP1;P1;durP2;ratioP2;P2;SDS_P1;SDS_P2;PMS_P1;PMS_P2;Temp;Humidity;BMP_temperature;BMP_pressure;BME280_temperature;BME280_humidity;BME280_pressure;Samples;Min_cycle;Max_cycle;Signal;HPM_P1;HPM_P2
2021/06/13 00:00:38;;;;;;;0.40;0.40;;;15.10;99.90;;;;;;4430439;32;20061;-58
2021/06/13 00:03:04;;;;;;;0.70;0.70;;;15.10;99.90;;;;;;4430273;32;20122;-58
2021/06/13 00:05:29;;;;;;;1.98;0.77;;;15.10;99.90;;;;;;4416499;32;20077;-58
2021/06/13 00:07:55;;;;;;;0.22;0.22;;;15.10;99.90;;;;;;4417169;32;20505;-58
2021/06/13 00:10:21;;;;;;;1.15;0.45;;;15.00;99.90;;;;;;4430652;32;20094;-57
2021/06/13 00:12:47;;;;;;;0.55;0.55;;;14.80;99.90;;;;;;4413739;32;20061;-59
2021/06/13 00:15:17;;;;;;;0.28;0.28;;;14.90;99.90;;;;;;4417514;32;20130;-58
2021/06/13 00:17:42;;;;;;;0.20;0.20;;;14.90;99.90;;;;;;4416130;32;20135;-57
2021/06/13 00:20:12;;;;;;;0.45;0.43;;;15.00;99.10;;;;;;4416825;32;20069;-58
2021/06/13 00:22:38;;;;;;;0.50;0.50;;;14.80;99.00;;;;;;4431488;32;20067;-57
2021/06/13 00:25:05;;;;;;;11.20;0.68;;;14.90;98.60;;;;;;4417633;32;20130;-56
2021/06/13 00:27:31;;;;;;;0.28;0.28;;;14.80;98.60;;;;;;4404241;32;20058;-57
2021/06/13 00:29:56;;;;;;;0.37;0.37;;;14.90;98.70;;;;;;4416061;32;20073;-60
2021/06/13 00:32:22;;;;;;;2.17;1.00;;;14.90;98.10;;;;;;4430376;32;20177;-58
2021/06/13 00:34:47;;;;;;;0.52;0.50;;;14.80;98.10;;;;;;4430918;32;20098;-55
2021/06/13 00:37:13;;;;;;;0.35;0.35;;;14.80;98.10;;;;;;4430757;32;20060;-56
2021/06/13 00:39:38;;;;;;;3.20;0.65;;;14.80;98.20;;;;;;4429687;32;20086;-58
2021/06/13 00:42:04;;;;;;;0.30;0.30;;;14.80;98.10;;;;;;4431243;32;20463;-59
2021/06/13 00:44:30;;;;;;;0.40;0.40;;;14.80;98.50;;;;;;4428997;32;20073;-58
2021/06/13 00:46:55;;;;;;;0.22;0.22;;;14.80;98.90;;;;;;4416890;32;20169;-58
2021/06/13 00:49:21;;;;;;;0.30;0.30;;;14.80;99.00;;;;;;4430406;32;20081;-58
2021/06/13 00:51:47;;;;;;;5.07;0.52;;;14.80;99.20;;;;;;4429697;32;20066;-58
2021/06/13 00:54:12;;;;;;;2.22;1.27;;;14.60;99.40;;;;;;4430049;32;20112;-56
2021/06/13 00:56:38;;;;;;;0.40;0.40;;;14.50;99.60;;;;;;4430349;32;20065;-58
2021/06/13 00:59:05;;;;;;;8.85;0.65;;;14.50;99.70;;;;;;4416028;32;20416;-59
2021/06/13 01:01:30;;;;;;;0.93;0.43;;;14.40;99.90;;;;;;4430736;32;20069;-55
2021/06/13 01:03:56;;;;;;;0.30;0.30;;;14.40;99.90;;;;;;4431132;32;20077;-58
2021/06/13 01:06:34;;;;;;;0.30;0.30;;;14.40;99.90;;;;;;4429461;32;20099;-58
2021/06/13 01:09:05;;;;;;;0.30;0.30;;;14.40;99.90;;;;;;4415555;32;20478;-57
2021/06/13 01:11:43;;;;;;;0.20;0.20;;;14.40;99.90;;;;;;4431026;32;20073;-59
2021/06/13 01:14:34;;;;;;;0.28;0.28;;;14.30;99.90;;;;;;4404665;32;20116;-58
2021/06/13 01:17:39;;;;;;;11.02;2.45;;;14.30;99.90;;;;;;4416129;32;20065;-59
2021/06/13 01:20:11;;;;;;;0.20;0.20;;;14.20;99.90;;;;;;4409536;32;20081;-58
2021/06/13 01:22:45;;;;;;;0.30;0.30;;;14.20;99.90;;;;;;4429526;32;20456;-57
2021/06/13 01:25:51;;;;;;;0.95;0.50;;;14.10;99.90;;;;;;4429353;32;20069;-58
2021/06/13 01:28:40;;;;;;;0.20;0.20;;;14.10;99.90;;;;;;4409420;32;20061;-57
2021/06/13 01:31:07;;;;;;;0.40;0.40;;;14.00;99.90;;;;;;4418233;32;20488;-58
2021/06/13 01:33:34;;;;;;;0.88;0.80;;;14.10;99.90;;;;;;4416329;32;20688;-57
2021/06/13 01:36:01;;;;;;;5.87;1.08;;;14.00;99.90;;;;;;4402937;32;20073;-58
2021/06/13 01:38:29;;;;;;;0.22;0.22;;;14.10;99.90;;;;;;4429867;32;20065;-58
2021/06/13 01:40:59;;;;;;;0.20;0.20;;;14.00;99.90;;;;;;4415565;32;20124;-57
2021/06/13 01:43:25;;;;;;;0.88;0.50;;;14.10;99.90;;;;;;4416098;32;20464;-58
2021/06/13 01:45:54;;;;;;;7.53;0.55;;;14.20;99.90;;;;;;4429346;32;20068;-56
2021/06/13 01:48:21;;;;;;;0.20;0.20;;;14.00;99.90;;;;;;4429398;32;20082;-57
2021/06/13 01:50:47;;;;;;;0.20;0.20;;;14.00;99.90;;;;;;4403524;32;20510;-56
2021/06/13 01:53:16;;;;;;;4.90;0.85;;;14.00;99.90;;;;;;4415290;32;20073;-58
2021/06/13 01:55:46;;;;;;;0.35;0.35;;;14.00;99.90;;;;;;4428157;32;20068;-58
2021/06/13 01:58:14;;;;;;;0.52;0.52;;;14.00;99.90;;;;;;4427928;32;20310;-57
2021/06/13 02:00:40;;;;;;;0.77;0.77;;;14.00;99.90;;;;;;4416879;32;20506;-55
2021/06/13 02:03:08;;;;;;;0.28;0.28;;;13.90;99.90;;;;;;4414809;32;20112;-58
2021/06/13 02:05:35;;;;;;;5.37;0.40;;;13.90;99.90;;;;;;4416249;32;20142;-58
2021/06/13 02:08:00;;;;;;;0.40;0.40;;;13.90;99.90;;;;;;4429021;32;20078;-55
2021/06/13 02:10:27;;;;;;;2.65;1.35;;;13.80;99.90;;;;;;4428586;32;20065;-55
2021/06/13 02:12:55;;;;;;;9.40;0.95;;;13.70;99.90;;;;;;4429114;32;20057;-55
2021/06/13 02:15:24;;;;;;;0.40;0.40;;;13.70;99.90;;;;;;4425530;32;20479;-58
2021/06/13 02:17:51;;;;;;;0.22;0.22;;;13.70;99.90;;;;;;4388735;32;20412;-55
2021/06/13 02:20:21;;;;;;;0.20;0.20;;;13.60;99.90;;;;;;4414346;32;20499;-55
2021/06/13 02:22:48;;;;;;;0.50;0.50;;;13.60;99.90;;;;;;4400185;32;20440;-56
2021/06/13 02:25:15;;;;;;;0.35;0.35;;;13.60;99.90;;;;;;4400089;32;20081;-58
2021/06/13 02:27:42;;;;;;;0.20;0.20;;;13.70;99.90;;;;;;4399231;32;20074;-58
2021/06/13 02:30:09;;;;;;;0.50;0.50;;;13.70;99.90;;;;;;4416647;32;20147;-59
2021/06/13 02:32:40;;;;;;;2.28;0.30;;;13.60;99.90;;;;;;4402145;32;20112;-56
2021/06/13 02:35:06;;;;;;;0.37;0.37;;;13.60;99.90;;;;;;4417070;32;20073;-58
2021/06/13 02:37:32;;;;;;;0.30;0.30;;;13.50;99.90;;;;;;4403600;32;20066;-56
2021/06/13 02:39:59;;;;;;;9.80;0.75;;;13.40;99.90;;;;;;4401902;32;20526;-57
2021/06/13 02:42:25;;;;;;;0.20;0.20;;;13.50;99.90;;;;;;4402836;32;20482;-57
2021/06/13 02:44:51;;;;;;;1.75;1.40;;;13.50;99.90;;;;;;4417143;32;20074;-57
2021/06/13 02:47:16;;;;;;;0.30;0.30;;;13.50;99.90;;;;;;4416106;32;20070;-58
2021/06/13 02:49:42;;;;;;;2.00;0.55;;;13.50;99.90;;;;;;4415811;32;20123;-57
2021/06/13 02:52:26;;;;;;;0.32;0.32;;;13.40;99.90;;;;;;4415788;32;20069;-57
2021/06/13 02:54:54;;;;;;;0.35;0.35;;;13.30;99.90;;;;;;4415411;32;20069;-59
2021/06/13 02:57:27;;;;;;;0.32;0.32;;;13.30;99.90;;;;;;4415229;32;20066;-58
2021/06/13 03:00:04;;;;;;;0.32;0.32;;;13.30;99.90;;;;;;4402424;32;20124;-58
2021/06/13 03:02:30;;;;;;;0.32;0.32;;;13.40;99.90;;;;;;4402311;32;20406;-57
2021/06/13 03:05:00;;;;;;;0.30;0.30;;;13.40;99.90;;;;;;4416510;32;20074;-55
2021/06/13 03:07:26;;;;;;;0.25;0.25;;;13.50;99.90;;;;;;4415952;32;20078;-55
2021/06/13 03:09:53;;;;;;;1.73;0.73;;;13.40;99.90;;;;;;4401222;32;20418;-57
2021/06/13 03:12:19;;;;;;;0.85;0.57;;;13.50;99.90;;;;;;4415524;32;20082;-58
2021/06/13 03:14:47;;;;;;;0.30;0.30;;;13.40;99.90;;;;;;4401277;32;20120;-58
2021/06/13 03:17:14;;;;;;;0.55;0.55;;;13.40;99.90;;;;;;4431244;32;20065;-58
2021/06/13 03:19:41;;;;;;;0.30;0.30;;;13.40;99.90;;;;;;4430959;32;20515;-56
2021/06/13 03:22:07;;;;;;;0.60;0.60;;;13.40;99.90;;;;;;4417844;32;20376;-55
2021/06/13 03:24:35;;;;;;;0.37;0.37;;;13.40;99.90;;;;;;4417569;32;20065;-55
2021/06/13 03:27:02;;;;;;;0.40;0.40;;;13.40;99.90;;;;;;4431428;32;20066;-58
2021/06/13 03:29:29;;;;;;;0.20;0.20;;;13.40;99.90;;;;;;4431550;32;20511;-58
2021/06/13 03:31:55;;;;;;;3.92;0.75;;;13.30;99.90;;;;;;4430775;32;20064;-58
2021/06/13 03:34:21;;;;;;;0.50;0.50;;;13.20;99.90;;;;;;4417211;32;20065;-55
2021/06/13 03:36:49;;;;;;;0.55;0.55;;;13.20;99.90;;;;;;4431067;32;20124;-57
2021/06/13 03:39:16;;;;;;;0.85;0.32;;;13.30;99.90;;;;;;4430619;32;20095;-58
2021/06/13 03:41:42;;;;;;;0.25;0.25;;;13.30;99.90;;;;;;4431579;32;20116;-57
2021/06/13 03:44:09;;;;;;;0.90;0.85;;;13.20;99.90;;;;;;4418098;32;20085;-59
2021/06/13 03:46:36;;;;;;;2.83;1.30;;;13.10;99.90;;;;;;4431362;32;20409;-55
2021/06/13 03:49:05;;;;;;;0.62;0.62;;;13.20;99.90;;;;;;4405250;32;20113;-56
2021/06/13 03:51:31;;;;;;;0.50;0.50;;;13.20;99.90;;;;;;4431927;32;20128;-55
2021/06/13 03:53:59;;;;;;;0.28;0.28;;;13.20;99.90;;;;;;4416849;32;20527;-57
2021/06/13 03:56:31;;;;;;;0.10;0.10;;;13.30;99.90;;;;;;4405407;32;20074;-57
2021/06/13 03:58:58;;;;;;;0.32;0.32;;;13.30;99.90;;;;;;4417456;32;20074;-57
2021/06/13 04:01:24;;;;;;;0.30;0.30;;;13.20;99.90;;;;;;4416559;32;20077;-58
2021/06/13 04:03:51;;;;;;;0.25;0.20;;;13.20;99.90;;;;;;4430369;32;20073;-59
2021/06/13 04:06:23;;;;;;;0.77;0.77;;;13.20;99.90;;;;;;4416851;32;20066;-58
2021/06/13 04:08:51;;;;;;;0.20;0.20;;;13.10;99.90;;;;;;4431242;32;20066;-58
2021/06/13 04:11:19;;;;;;;0.30;0.30;;;13.20;99.90;;;;;;4404414;32;20444;-58
2021/06/13 04:13:46;;;;;;;0.50;0.50;;;13.20;99.90;;;;;;4407085;32;20065;-54
2021/06/13 04:16:13;;;;;;;1.35;0.60;;;13.30;99.90;;;;;;4423250;32;20120;-55
2021/06/13 04:18:41;;;;;;;0.45;0.45;;;13.30;99.90;;;;;;4417900;32;20498;-57
2021/06/13 04:21:10;;;;;;;1.70;1.17;;;13.30;99.90;;;;;;4430383;32;20075;-57
2021/06/13 04:23:37;;;;;;;0.35;0.35;;;13.30;99.90;;;;;;4417963;32;20129;-58
2021/06/13 04:26:03;;;;;;;0.37;0.37;;;13.30;99.90;;;;;;4417086;32;20173;-58
2021/06/13 04:28:29;;;;;;;0.30;0.30;;;13.50;99.90;;;;;;4415769;32;20084;-57
2021/06/13 04:31:05;;;;;;;0.52;0.52;;;13.50;99.90;;;;;;4430277;32;20073;-58
2021/06/13 04:33:33;;;;;;;0.30;0.30;;;13.60;99.90;;;;;;4430510;32;20092;-58
2021/06/13 04:35:59;;;;;;;5.78;0.40;;;13.60;99.90;;;;;;4430327;32;20058;-59
2021/06/13 04:38:25;;;;;;;0.20;0.20;;;13.60;99.90;;;;;;4416725;32;20518;-59
2021/06/13 04:40:51;;;;;;;0.30;0.30;;;13.50;99.90;;;;;;4429118;32;20072;-57
2021/06/13 04:43:17;;;;;;;0.40;0.40;;;13.50;99.90;;;;;;4429109;32;20099;-55
2021/06/13 04:45:42;;;;;;;15.98;1.10;;;13.50;99.90;;;;;;4417450;32;20526;-56
2021/06/13 04:48:08;;;;;;;0.93;0.82;;;13.60;99.90;;;;;;4429620;32;20149;-57
2021/06/13 04:50:35;;;;;;;2.65;0.47;;;13.70;99.90;;;;;;4417254;32;20523;-56
2021/06/13 04:53:02;;;;;;;0.30;0.30;;;13.60;99.90;;;;;;4416975;32;20593;-57
2021/06/13 04:56:23;;;;;;;6.80;0.30;;;13.50;99.90;;;;;;4415669;32;20069;-59
2021/06/13 04:58:49;;;;;;;0.20;0.20;;;13.40;99.90;;;;;;4429746;32;20079;-55
2021/06/13 05:01:14;;;;;;;0.40;0.40;;;13.30;99.90;;;;;;4430096;32;20385;-57
2021/06/13 05:03:42;;;;;;;0.20;0.20;;;13.30;99.90;;;;;;4431142;32;20066;-58
2021/06/13 05:06:08;;;;;;;0.25;0.25;;;13.20;99.90;;;;;;4430916;32;20069;-56
2021/06/13 05:08:33;;;;;;;0.70;0.70;;;13.30;99.90;;;;;;4430434;32;20064;-55
2021/06/13 05:10:59;;;;;;;9.00;0.98;;;13.20;99.90;;;;;;4429091;32;20062;-59
2021/06/13 05:13:24;;;;;;;11.85;0.47;;;13.30;99.90;;;;;;4422963;32;20069;-58
2021/06/13 05:15:50;;;;;;;0.40;0.40;;;13.30;99.90;;;;;;4405910;32;20069;-58
2021/06/13 05:18:15;;;;;;;2.53;0.95;;;13.20;99.90;;;;;;4429328;32;20408;-58
2021/06/13 05:20:41;;;;;;;1.90;0.50;;;13.20;99.90;;;;;;4416051;32;20066;-58
2021/06/13 05:23:07;;;;;;;1.08;0.57;;;13.20;99.90;;;;;;4416311;32;20080;-56
2021/06/13 05:25:35;;;;;;;0.50;0.50;;;13.30;99.90;;;;;;4416070;32;20120;-58
2021/06/13 05:28:02;;;;;;;0.32;0.32;;;13.30;99.90;;;;;;4403115;32;20061;-58
2021/06/13 05:30:29;;;;;;;0.57;0.57;;;13.50;99.90;;;;;;4417031;32;20073;-58
2021/06/13 05:32:55;;;;;;;13.25;0.45;;;13.70;99.90;;;;;;4428858;32;20431;-57
2021/06/13 05:35:22;;;;;;;2.92;0.80;;;13.60;99.90;;;;;;4416156;32;20061;-59
2021/06/13 05:37:48;;;;;;;0.30;0.30;;;13.60;99.90;;;;;;4416984;32;20183;-59
2021/06/13 05:40:14;;;;;;;0.43;0.43;;;13.50;99.90;;;;;;4415751;32;20077;-55
2021/06/13 05:42:40;;;;;;;0.57;0.57;;;13.50;99.90;;;;;;4428699;32;20076;-55
2021/06/13 05:45:08;;;;;;;5.53;1.85;;;13.50;99.90;;;;;;4429890;32;20116;-58
2021/06/13 05:47:34;;;;;;;0.30;0.30;;;13.50;99.90;;;;;;4430415;32;20407;-56
2021/06/13 05:50:00;;;;;;;0.30;0.30;;;13.60;99.90;;;;;;4416590;32;20057;-57
2021/06/13 05:52:25;;;;;;;5.00;0.50;;;13.60;99.90;;;;;;4430138;32;20111;-58
2021/06/13 05:54:57;;;;;;;0.93;0.50;;;13.70;99.90;;;;;;4416179;32;20077;-59
2021/06/13 05:57:23;;;;;;;1.00;0.77;;;13.80;99.90;;;;;;4429153;32;20541;-59
2021/06/13 05:59:48;;;;;;;0.93;0.45;;;13.80;99.90;;;;;;4429614;32;20061;-59
2021/06/13 06:02:14;;;;;;;0.37;0.37;;;13.80;99.90;;;;;;4429849;32;20060;-58
2021/06/13 06:04:39;;;;;;;0.30;0.30;;;14.00;99.90;;;;;;4428910;32;20057;-55
2021/06/13 06:07:04;;;;;;;0.30;0.30;;;14.10;99.90;;;;;;4429832;32;20084;-55
2021/06/13 06:09:30;;;;;;;0.32;0.32;;;14.10;99.90;;;;;;4415564;32;20073;-58
2021/06/13 06:11:55;;;;;;;0.62;0.62;;;13.90;99.90;;;;;;4428863;32;20129;-55
2021/06/13 06:14:21;;;;;;;1.20;0.95;;;13.90;99.90;;;;;;4415994;32;20070;-57
2021/06/13 06:16:46;;;;;;;0.50;0.50;;;14.00;99.90;;;;;;4426507;32;20069;-55
2021/06/13 06:19:12;;;;;;;0.62;0.60;;;14.10;99.90;;;;;;4415313;32;20081;-56
2021/06/13 06:21:37;;;;;;;0.30;0.30;;;14.20;99.90;;;;;;4429098;32;20065;-56
2021/06/13 06:24:04;;;;;;;1.35;0.40;;;14.30;99.90;;;;;;4429460;32;20581;-58
2021/06/13 06:26:29;;;;;;;0.30;0.30;;;14.30;99.90;;;;;;4428835;32;20146;-57
2021/06/13 06:28:55;;;;;;;0.40;0.40;;;14.30;99.90;;;;;;4429048;32;20413;-57
2021/06/13 06:31:20;;;;;;;3.62;0.50;;;14.30;99.90;;;;;;4429163;32;20081;-59
2021/06/13 06:33:46;;;;;;;0.73;0.65;;;14.30;99.90;;;;;;4429431;32;20064;-59
2021/06/13 06:36:11;;;;;;;0.30;0.30;;;14.40;99.90;;;;;;4428471;32;20529;-58
2021/06/13 06:38:37;;;;;;;0.30;0.30;;;14.50;99.90;;;;;;4429394;32;20162;-56
2021/06/13 06:41:02;;;;;;;0.30;0.30;;;14.50;99.90;;;;;;4429000;32;20087;-58
2021/06/13 06:43:28;;;;;;;0.20;0.20;;;14.50;99.90;;;;;;4428891;32;20074;-57
2021/06/13 06:45:53;;;;;;;1.35;0.55;;;14.40;99.90;;;;;;4429454;32;20065;-56
2021/06/13 06:48:19;;;;;;;0.25;0.25;;;14.50;99.90;;;;;;4428311;32;20074;-55
2021/06/13 06:50:45;;;;;;;2.47;0.95;;;14.50;99.90;;;;;;4428217;32;20332;-58
2021/06/13 06:53:10;;;;;;;0.25;0.25;;;14.40;99.90;;;;;;4429302;32;20069;-58
2021/06/13 06:55:36;;;;;;;0.77;0.50;;;14.50;99.90;;;;;;4428563;32;20128;-55
2021/06/13 06:58:02;;;;;;;1.42;0.70;;;14.50;99.90;;;;;;4414751;32;20751;-55
2021/06/13 07:00:28;;;;;;;2.60;0.73;;;14.60;99.90;;;;;;4428110;32;20056;-57
2021/06/13 07:02:53;;;;;;;0.52;0.50;;;14.50;99.90;;;;;;4428763;32;20124;-57
2021/06/13 07:05:19;;;;;;;0.52;0.50;;;14.50;99.90;;;;;;4428206;32;20066;-58
2021/06/13 07:07:45;;;;;;;0.25;0.25;;;14.50;99.90;;;;;;4429087;32;20061;-56
2021/06/13 07:10:12;;;;;;;1.30;0.50;;;14.50;99.90;;;;;;4401374;32;20154;-58
2021/06/13 07:12:40;;;;;;;1.55;0.98;;;14.50;99.90;;;;;;4412575;32;20081;-59
2021/06/13 07:15:08;;;;;;;0.20;0.20;;;14.60;99.90;;;;;;4402047;32;20066;-58
2021/06/13 07:17:35;;;;;;;0.40;0.40;;;14.70;99.90;;;;;;4430705;32;20065;-56
2021/06/13 07:20:01;;;;;;;0.25;0.25;;;14.50;99.90;;;;;;4431181;32;20514;-58
2021/06/13 07:22:26;;;;;;;5.05;1.17;;;14.50;99.90;;;;;;4430953;32;20070;-57
2021/06/13 07:24:53;;;;;;;4.00;0.75;;;14.50;99.90;;;;;;4431470;32;20521;-58
2021/06/13 07:27:19;;;;;;;0.20;0.20;;;14.60;99.90;;;;;;4416969;32;20418;-57
2021/06/13 07:29:44;;;;;;;2.00;0.73;;;14.70;99.90;;;;;;4424248;32;20070;-55
2021/06/13 07:32:10;;;;;;;1.05;0.62;;;14.70;99.90;;;;;;4418449;32;20141;-56
2021/06/13 07:34:35;;;;;;;0.20;0.20;;;14.70;99.90;;;;;;4416880;32;20079;-59
2021/06/13 07:37:03;;;;;;;0.28;0.28;;;14.70;99.90;;;;;;4419247;32;20120;-57
2021/06/13 07:39:30;;;;;;;0.20;0.20;;;14.70;99.90;;;;;;4403447;32;20466;-57
2021/06/13 07:41:57;;;;;;;0.20;0.20;;;14.70;99.90;;;;;;4410477;32;20065;-55
2021/06/13 07:44:23;;;;;;;0.20;0.20;;;14.60;99.90;;;;;;4427914;32;20086;-57
2021/06/13 07:46:48;;;;;;;2.05;0.50;;;14.80;99.90;;;;;;4423229;32;20062;-57
2021/06/13 07:49:14;;;;;;;0.30;0.30;;;14.80;99.90;;;;;;4430825;32;20407;-56
2021/06/13 07:51:39;;;;;;;0.25;0.25;;;14.80;99.90;;;;;;4430362;32;20121;-57
2021/06/13 07:54:05;;;;;;;1.12;0.30;;;14.70;99.90;;;;;;4430776;32;20074;-58
2021/06/13 07:56:31;;;;;;;0.20;0.20;;;14.80;99.90;;;;;;4416800;32;20087;-57
2021/06/13 07:58:56;;;;;;;0.43;0.43;;;14.90;99.90;;;;;;4416061;32;20082;-58
2021/06/13 08:01:22;;;;;;;1.05;0.52;;;14.90;99.90;;;;;;4430783;32;20131;-56
2021/06/13 08:03:47;;;;;;;0.40;0.40;;;15.00;99.90;;;;;;4431367;32;20065;-57
2021/06/13 08:06:13;;;;;;;0.32;0.32;;;15.10;99.90;;;;;;4431146;32;20506;-59
2021/06/13 08:08:38;;;;;;;0.80;0.75;;;15.20;99.90;;;;;;4417144;32;20064;-57
2021/06/13 08:11:05;;;;;;;0.30;0.30;;;15.30;99.90;;;;;;4430985;32;20069;-54
2021/06/13 08:13:31;;;;;;;0.20;0.20;;;15.30;99.90;;;;;;4408474;32;20538;-58
2021/06/13 08:15:56;;;;;;;0.62;0.62;;;15.30;99.90;;;;;;4422434;32;20069;-58
2021/06/13 08:18:22;;;;;;;0.30;0.30;;;15.20;99.90;;;;;;4417140;32;20138;-58
2021/06/13 08:20:47;;;;;;;0.80;0.40;;;15.40;99.90;;;;;;4430621;32;20061;-54
2021/06/13 08:23:13;;;;;;;0.77;0.77;;;15.50;99.90;;;;;;4431533;32;20073;-57
2021/06/13 08:25:38;;;;;;;0.43;0.43;;;15.50;99.80;;;;;;4430091;32;20062;-58
2021/06/13 08:28:04;;;;;;;0.32;0.25;;;15.60;99.80;;;;;;4429418;32;20073;-57
2021/06/13 08:30:30;;;;;;;0.30;0.30;;;15.60;99.90;;;;;;4431506;32;20073;-55
2021/06/13 08:32:55;;;;;;;0.62;0.52;;;15.60;99.90;;;;;;4415721;32;20065;-58
2021/06/13 08:35:21;;;;;;;0.30;0.30;;;15.50;99.90;;;;;;4416409;32;20156;-58
2021/06/13 08:37:47;;;;;;;0.80;0.47;;;15.70;99.90;;;;;;4429922;32;20169;-58
2021/06/13 08:40:13;;;;;;;0.37;0.37;;;15.70;99.90;;;;;;4430021;32;20090;-56
2021/06/13 08:42:40;;;;;;;0.20;0.20;;;15.80;99.90;;;;;;4430482;32;20090;-57
2021/06/13 08:45:09;;;;;;;0.80;0.80;;;15.60;99.90;;;;;;4417336;32;20061;-58
2021/06/13 08:47:35;;;;;;;0.20;0.20;;;15.70;99.90;;;;;;4403328;32;20493;-55
2021/06/13 08:50:00;;;;;;;3.83;1.17;;;15.70;99.90;;;;;;4416157;32;20061;-54
2021/06/13 08:52:26;;;;;;;11.80;0.40;;;15.70;99.90;;;;;;4430886;32;20134;-58
2021/06/13 08:54:52;;;;;;;0.20;0.20;;;15.60;99.90;;;;;;4416282;32;20065;-54
2021/06/13 08:57:17;;;;;;;1.17;0.47;;;15.60;99.90;;;;;;4415521;32;20073;-58
2021/06/13 08:59:45;;;;;;;0.40;0.40;;;15.60;99.90;;;;;;4429411;32;20703;-54
2021/06/13 09:02:11;;;;;;;0.30;0.30;;;15.70;99.90;;;;;;4415433;32;20066;-58
2021/06/13 09:04:36;;;;;;;1.02;0.47;;;15.70;99.90;;;;;;4430792;32;20078;-56
2021/06/13 09:07:12;;;;;;;1.98;0.75;;;15.80;99.90;;;;;;4417134;32;20081;-59
2021/06/13 09:09:37;;;;;;;0.57;0.55;;;15.80;99.90;;;;;;4402433;32;20065;-59
2021/06/13 09:12:05;;;;;;;0.45;0.45;;;15.90;99.90;;;;;;4417414;32;20077;-59
2021/06/13 09:14:38;;;;;;;0.30;0.30;;;15.90;99.90;;;;;;4414183;32;20112;-58
2021/06/13 09:17:21;;;;;;;0.20;0.20;;;16.00;99.90;;;;;;4414960;32;20451;-58
2021/06/13 09:20:05;;;;;;;0.30;0.30;;;16.00;99.60;;;;;;4429703;32;20414;-55
2021/06/13 09:22:31;;;;;;;12.07;1.02;;;15.90;99.90;;;;;;4430930;32;20069;-56
2021/06/13 09:25:07;;;;;;;0.20;0.20;;;15.80;99.90;;;;;;4403518;32;20065;-58
2021/06/13 09:27:33;;;;;;;0.20;0.20;;;15.80;99.90;;;;;;4430051;32;20127;-58
2021/06/13 09:29:58;;;;;;;0.20;0.20;;;15.80;99.90;;;;;;4429308;32;20060;-58
2021/06/13 09:32:24;;;;;;;4.78;0.52;;;15.80;99.90;;;;;;4415885;32;20077;-56
2021/06/13 09:35:28;;;;;;;0.28;0.28;;;15.60;99.90;;;;;;4429885;32;20073;-58
2021/06/13 09:38:22;;;;;;;0.20;0.20;;;15.70;99.90;;;;;;4420703;32;20064;-58
2021/06/13 09:40:53;;;;;;;7.30;1.65;;;15.70;99.90;;;;;;4404654;32;73924;-57
2021/06/13 09:43:23;;;;;;;0.40;0.40;;;15.40;99.90;;;;;;4428725;32;20206;-59
2021/06/13 09:45:52;;;;;;;0.32;0.32;;;15.30;99.90;;;;;;4429575;32;20111;-55
2021/06/13 09:48:18;;;;;;;0.88;0.57;;;15.20;99.90;;;;;;4403672;32;20065;-59
2021/06/13 09:50:47;;;;;;;0.30;0.30;;;15.20;99.90;;;;;;4401482;32;20085;-55
2021/06/13 09:53:22;;;;;;;0.20;0.20;;;15.10;99.90;;;;;;4400746;32;20475;-59
2021/06/13 09:56:02;;;;;;;0.25;0.25;;;15.10;99.90;;;;;;4400530;32;20507;-59
2021/06/13 09:58:29;;;;;;;1.75;0.93;;;15.30;99.90;;;;;;4413316;32;20069;-59
2021/06/13 10:00:54;;;;;;;1.40;1.00;;;15.60;99.90;;;;;;4415029;32;20081;-58
2021/06/13 10:03:22;;;;;;;1.05;0.77;;;15.80;99.90;;;;;;4413392;32;20070;-59
2021/06/13 10:05:56;;;;;;;2.55;0.47;;;15.90;99.90;;;;;;4414523;32;20086;-59
2021/06/13 10:08:22;;;;;;;0.20;0.20;;;16.10;99.90;;;;;;4401390;32;20522;-59
2021/06/13 10:10:47;;;;;;;0.65;0.65;;;16.30;99.90;;;;;;4399583;32;20124;-57
2021/06/13 10:13:13;;;;;;;0.57;0.47;;;16.60;99.90;;;;;;4419416;32;20119;-59
2021/06/13 10:15:39;;;;;;;0.50;0.50;;;17.00;99.80;;;;;;4424380;32;20065;-58
2021/06/13 10:18:12;;;;;;;0.30;0.30;;;17.10;99.40;;;;;;4400935;32;20526;-58
2021/06/13 10:20:38;;;;;;;0.22;0.22;;;17.20;98.90;;;;;;4414238;32;20504;-59
2021/06/13 10:23:04;;;;;;;0.30;0.30;;;17.00;98.20;;;;;;4415123;32;20120;-56
2021/06/13 10:25:30;;;;;;;8.25;1.12;;;17.00;97.90;;;;;;4399469;32;20081;-58
2021/06/13 10:27:57;;;;;;;0.47;0.47;;;16.80;98.50;;;;;;4412675;32;20066;-57
2021/06/13 10:30:24;;;;;;;1.85;0.75;;;16.90;98.60;;;;;;4413109;32;20117;-55
2021/06/13 10:32:49;;;;;;;0.40;0.40;;;17.00;98.30;;;;;;4400934;32;20531;-58
2021/06/13 10:35:16;;;;;;;1.42;0.35;;;17.10;98.60;;;;;;4399637;32;20066;-56
2021/06/13 10:37:42;;;;;;;2.55;0.75;;;17.10;97.90;;;;;;4401014;32;20125;-58
2021/06/13 10:40:07;;;;;;;6.10;0.43;;;17.10;97.90;;;;;;4400165;32;20121;-57
2021/06/13 10:42:37;;;;;;;0.37;0.37;;;17.30;98.10;;;;;;4413768;32;20132;-58
2021/06/13 10:45:04;;;;;;;15.85;0.40;;;17.30;97.50;;;;;;4414732;32;20072;-57
2021/06/13 10:47:31;;;;;;;6.03;0.57;;;17.20;97.70;;;;;;4400993;32;20457;-58
2021/06/13 10:50:05;;;;;;;8.98;1.23;;;17.20;97.90;;;;;;4414203;32;20133;-58
2021/06/13 10:52:32;;;;;;;0.32;0.32;;;17.20;97.90;;;;;;4423374;32;20078;-57
2021/06/13 10:54:59;;;;;;;0.93;0.75;;;17.00;98.30;;;;;;4429669;32;20077;-57
2021/06/13 10:57:37;;;;;;;1.60;0.60;;;16.80;98.30;;;;;;4424657;32;20101;-56
2021/06/13 11:00:23;;;;;;;6.75;0.57;;;16.70;98.80;;;;;;4426597;32;20077;-59
2021/06/13 11:02:57;;;;;;;0.70;0.70;;;16.70;99.00;;;;;;4418479;32;20077;-59
2021/06/13 11:05:42;;;;;;;1.30;0.70;;;16.80;99.00;;;;;;4419201;32;20077;-58
2021/06/13 11:08:07;;;;;;;0.50;0.50;;;17.10;98.70;;;;;;4418010;32;20523;-58
2021/06/13 11:10:33;;;;;;;1.02;0.57;;;17.30;98.20;;;;;;4430012;32;20061;-58
2021/06/13 11:13:24;;;;;;;0.50;0.50;;;17.20;98.10;;;;;;4427329;32;20530;-57
2021/06/13 11:15:51;;;;;;;0.20;0.20;;;17.20;98.20;;;;;;4410063;32;20128;-56
2021/06/13 11:18:20;;;;;;;0.45;0.45;;;17.30;98.40;;;;;;4431375;32;20069;-58
2021/06/13 11:20:50;;;;;;;0.30;0.30;;;17.20;97.30;;;;;;4418427;32;20061;-58
2021/06/13 11:23:25;;;;;;;0.30;0.30;;;17.20;97.20;;;;;;4432299;32;20066;-59
2021/06/13 11:25:52;;;;;;;0.40;0.40;;;17.10;97.70;;;;;;4430434;32;20069;-56
2021/06/13 11:28:22;;;;;;;1.05;0.77;;;17.10;97.50;;;;;;4431177;32;20082;-57
2021/06/13 11:30:54;;;;;;;0.30;0.30;;;17.40;97.80;;;;;;4432216;32;20073;-59
2021/06/13 11:33:44;;;;;;;22.37;0.70;;;17.70;97.40;;;;;;4416901;32;20078;-56
2021/06/13 11:36:22;;;;;;;0.25;0.25;;;18.00;97.10;;;;;;4407578;32;20086;-60
2021/06/13 11:38:50;;;;;;;8.07;0.40;;;18.20;96.30;;;;;;4430899;32;20132;-59
2021/06/13 11:41:27;;;;;;;0.60;0.60;;;18.30;95.70;;;;;;4405969;32;20057;-58
2021/06/13 11:43:53;;;;;;;3.30;0.50;;;18.20;95.80;;;;;;4429486;32;20127;-58
2021/06/13 11:46:40;;;;;;;0.40;0.40;;;18.20;95.80;;;;;;4416498;32;20108;-57
2021/06/13 11:49:07;;;;;;;1.20;0.73;;;18.30;96.30;;;;;;4420225;32;20073;-57
2021/06/13 11:51:49;;;;;;;0.73;0.73;;;18.40;94.10;;;;;;4405763;32;20518;-56
2021/06/13 11:54:36;;;;;;;4.82;0.50;;;18.40;94.80;;;;;;4429860;32;20440;-58
2021/06/13 11:57:21;;;;;;;0.30;0.30;;;18.90;93.90;;;;;;4420455;32;20061;-59
2021/06/13 11:59:48;;;;;;;8.57;0.30;;;19.10;92.80;;;;;;4430790;32;20081;-58
2021/06/13 12:02:17;;;;;;;0.43;0.43;;;19.00;92.70;;;;;;4415730;32;20125;-58
2021/06/13 12:04:45;;;;;;;1.05;0.45;;;19.10;92.40;;;;;;4405683;32;20114;-59
2021/06/13 12:07:14;;;;;;;0.22;0.22;;;19.20;92.50;;;;;;4431334;32;20073;-58
2021/06/13 12:09:40;;;;;;;0.50;0.50;;;19.30;91.90;;;;;;4415947;32;20506;-58
2021/06/13 12:12:08;;;;;;;0.25;0.25;;;19.30;91.50;;;;;;4416867;32;20116;-58
2021/06/13 12:14:37;;;;;;;0.20;0.20;;;19.10;91.90;;;;;;4401133;32;20065;-58
2021/06/13 12:17:13;;;;;;;0.70;0.40;;;19.10;92.30;;;;;;4429742;32;20467;-56
2021/06/13 12:19:41;;;;;;;0.35;0.32;;;18.90;92.40;;;;;;4417471;32;20065;-59
2021/06/13 12:23:18;;;;;;;0.52;0.52;;;18.90;92.80;;;;;;4430605;32;20116;-58
2021/06/13 12:27:29;;;;;;;0.43;0.43;;;19.30;91.90;;;;;;4411702;32;20442;-58
2021/06/13 12:28:15;;;;;;;0.15;0.15;;;20.00;92.10;;;;;;4417662;32;20138;-56
2021/06/13 12:30:43;;;;;;;0.20;0.20;;;21.10;89.70;;;;;;4430744;32;20123;-58
2021/06/13 12:33:11;;;;;;;0.37;0.30;;;21.30;89.10;;;;;;4416713;32;20122;-56
2021/06/13 12:35:40;;;;;;;0.35;0.35;;;21.70;88.00;;;;;;4404960;32;20072;-57
2021/06/13 12:38:08;;;;;;;1.10;0.22;;;21.90;85.20;;;;;;4430426;32;20070;-56
2021/06/13 12:40:41;;;;;;;0.10;0.10;;;21.50;86.20;;;;;;4415632;32;20073;-59
2021/06/13 12:43:08;;;;;;;0.20;0.20;;;20.90;87.20;;;;;;4416251;32;20060;-59
2021/06/13 12:45:36;;;;;;;4.68;0.60;;;21.30;86.00;;;;;;4405338;32;20061;-59
2021/06/13 12:48:06;;;;;;;1.55;0.30;;;21.90;84.20;;;;;;4430684;32;20523;-58
2021/06/13 12:50:37;;;;;;;8.38;0.65;;;22.20;81.50;;;;;;4430672;32;20188;-58
2021/06/13 12:53:05;;;;;;;0.20;0.20;;;22.70;79.90;;;;;;4417422;32;20108;-59